British Virtual Airways Airport Information Service

London Heathrow Airport

ICAO: EGLL Country: United Kingdom
Latitude: 51.4706 Longitude: -0.461941
Latest Arrival : BAW341(1) (LFMN-EGLL) Latest Departure : BAW460 (EGLL-LEMD)


WX CaptureLIVE
Data provided by noaa.gov | Fetched at 06:56:14

METAR : EGLL 050620Z AUTO 11007KT 9999 NCD 07/02 Q1016 NOSIG

TAF : EGLL 050453Z 0506/0612 13008KT CAVOK PROB30 TEMPO 0511/0519 15015G25KT BECMG 0601/0604 20010KT BKN045 TEMPO 0604/0610 6000 -RA BKN012 PROB30 TEMPO 0604/0610 4000 RA BKN007


Runway Data for EGLL
Data provided by openaviationdata.com

Runway ID Mag Var Hdg Length Elevation Surface ILS Freq ILS Id ILS Slope
09L -1 90° 13160 ft 83 ft Asphalt 110.3 IAA 3
09R -1 91° 12396 ft 83 ft Asphalt 109.5 IBB 3
27L -1 271° 12396 ft 83 ft Asphalt 109.5 ILL 3
27R -1 270° 13160 ft 83 ft Asphalt 110.3 IRR 3

London Heathrow Airport, United Kingdom
Use only for reference purposes



Not for navigational purposes.